Time;durP1;ratioP1;P1;durP2;ratioP2;P2;SDS_P1;SDS_P2;PMS_P1;PMS_P2;Temp;Humidity;BMP_temperature;BMP_pressure;BME280_temperature;BME280_humidity;BME280_pressure;Samples;Min_cycle;Max_cycle;Signal;HPM_P1;HPM_P2
2022/11/17 00:01:50;;;;;;;23.70;16.00;;;7.90;99.90;;;;;;4995434;28;20069;-77
2022/11/17 00:04:15;;;;;;;24.83;15.93;;;7.90;99.90;;;;;;4980238;28;20104;-78
2022/11/17 00:06:41;;;;;;;22.17;15.27;;;8.00;99.90;;;;;;4995778;28;20088;-78
2022/11/17 00:09:10;;;;;;;25.13;15.80;;;7.90;99.90;;;;;;5012231;28;20049;-77
2022/11/17 00:14:32;;;;;;;21.63;15.07;;;8.00;99.90;;;;;;4995094;28;20045;-78
2022/11/17 00:16:59;;;;;;;25.67;15.27;;;8.00;99.90;;;;;;4995463;28;20045;-77
2022/11/17 00:22:09;;;;;;;20.67;15.43;;;8.00;99.90;;;;;;4994861;28;20049;-78
2022/11/17 00:24:34;;;;;;;19.17;14.23;;;8.00;99.90;;;;;;4994740;28;20104;-77
2022/11/17 00:27:00;;;;;;;20.65;15.52;;;8.00;99.90;;;;;;4994687;28;20041;-78
2022/11/17 00:29:26;;;;;;;20.00;14.07;;;8.00;99.90;;;;;;4994246;28;20461;-76
2022/11/17 00:34:36;;;;;;;20.00;14.52;;;8.00;99.90;;;;;;4991321;28;20046;-77
2022/11/17 00:37:02;;;;;;;20.38;14.23;;;8.00;99.90;;;;;;4994849;28;20037;-76
2022/11/17 00:39:28;;;;;;;19.65;14.82;;;8.00;99.90;;;;;;4993791;28;20547;-77
2022/11/17 00:41:54;;;;;;;19.42;13.63;;;8.00;99.90;;;;;;4994002;28;20121;-77
2022/11/17 00:44:19;;;;;;;19.67;14.05;;;8.00;99.90;;;;;;4994752;28;20218;-76
2022/11/17 00:46:45;;;;;;;18.60;14.10;;;8.00;99.90;;;;;;4993652;28;20061;-76
2022/11/17 00:49:11;;;;;;;17.90;13.50;;;8.00;99.90;;;;;;4994455;28;20042;-77
2022/11/17 00:51:37;;;;;;;17.85;13.82;;;8.00;99.90;;;;;;4993699;28;20087;-77
2022/11/17 00:54:04;;;;;;;19.55;14.23;;;8.00;99.90;;;;;;4995642;28;20132;-77
2022/11/17 00:56:30;;;;;;;18.92;14.43;;;8.00;99.90;;;;;;4994990;28;20080;-75
2022/11/17 00:58:55;;;;;;;20.30;13.90;;;8.00;99.90;;;;;;4995107;28;20041;-77
2022/11/17 01:01:22;;;;;;;18.23;13.73;;;8.00;99.90;;;;;;4993716;28;20116;-77
2022/11/17 01:03:47;;;;;;;20.23;13.68;;;8.00;99.90;;;;;;4993041;28;20052;-78
2022/11/17 01:06:15;;;;;;;18.48;13.63;;;7.90;99.90;;;;;;4993932;28;20045;-77
2022/11/17 01:08:41;;;;;;;17.95;13.93;;;8.00;99.90;;;;;;4994803;28;20534;-77
2022/11/17 01:11:11;;;;;;;17.25;13.68;;;7.90;99.90;;;;;;4995216;28;20159;-77
2022/11/17 01:13:38;;;;;;;15.50;13.38;;;7.90;99.90;;;;;;4994486;28;20030;-77
2022/11/17 01:16:13;;;;;;;20.67;13.55;;;7.90;99.90;;;;;;4993714;28;20543;-76
2022/11/17 01:18:40;;;;;;;20.00;13.27;;;8.00;99.90;;;;;;4988216;28;20069;-75
2022/11/17 01:21:10;;;;;;;17.92;13.95;;;7.90;99.90;;;;;;4992148;28;20045;-75
2022/11/17 01:23:37;;;;;;;15.45;12.40;;;7.90;99.90;;;;;;4993972;28;20034;-76
2022/11/17 01:26:05;;;;;;;16.25;12.68;;;8.00;99.90;;;;;;4993355;28;20133;-78
2022/11/17 01:28:31;;;;;;;16.77;13.25;;;7.90;99.90;;;;;;4993456;28;20053;-77
2022/11/17 01:31:02;;;;;;;15.18;12.65;;;7.90;99.90;;;;;;4994627;28;20030;-78
2022/11/17 01:33:27;;;;;;;17.08;12.43;;;7.90;99.90;;;;;;4994009;28;20049;-75
2022/11/17 01:35:53;;;;;;;16.35;12.82;;;7.90;99.90;;;;;;4993014;28;20507;-76
2022/11/17 01:38:19;;;;;;;18.55;12.63;;;7.90;99.90;;;;;;4993818;28;20448;-77
2022/11/17 01:40:44;;;;;;;16.98;12.85;;;7.90;99.90;;;;;;4992955;28;20519;-75
2022/11/17 01:43:10;;;;;;;18.58;13.48;;;7.90;99.90;;;;;;4993673;28;20041;-76
2022/11/17 01:45:36;;;;;;;18.00;12.85;;;7.90;99.90;;;;;;4993167;28;20060;-77
2022/11/17 01:48:05;;;;;;;17.45;11.88;;;7.90;99.90;;;;;;4978196;28;20092;-77
2022/11/17 01:50:36;;;;;;;17.02;12.98;;;7.90;99.90;;;;;;4988697;28;20523;-76
2022/11/17 01:53:09;;;;;;;17.73;13.00;;;7.90;99.90;;;;;;4990188;28;20497;-77
2022/11/17 01:55:44;;;;;;;18.50;12.50;;;7.90;99.90;;;;;;4990770;28;20091;-79
2022/11/17 01:58:19;;;;;;;16.65;13.70;;;7.90;99.90;;;;;;5009182;28;20046;-76
2022/11/17 02:00:45;;;;;;;17.70;13.27;;;7.90;99.90;;;;;;4992534;28;20084;-76
2022/11/17 02:03:11;;;;;;;16.67;12.68;;;7.90;99.90;;;;;;4994074;28;20412;-78
2022/11/17 02:06:02;;;;;;;18.10;13.13;;;7.90;99.90;;;;;;4993531;28;20029;-77
2022/11/17 02:08:30;;;;;;;15.70;12.68;;;7.80;99.90;;;;;;4991465;28;20131;-78
2022/11/17 02:10:57;;;;;;;17.48;12.40;;;7.90;99.90;;;;;;5007268;28;20049;-76
2022/11/17 02:13:23;;;;;;;18.55;13.45;;;7.80;99.90;;;;;;4993502;28;20045;-76
2022/11/17 02:15:48;;;;;;;17.92;13.20;;;7.80;99.90;;;;;;4992238;28;20049;-77
2022/11/17 02:18:15;;;;;;;20.63;12.68;;;7.80;99.90;;;;;;4991590;28;20042;-77
2022/11/17 02:20:56;;;;;;;15.70;12.00;;;7.80;99.90;;;;;;4992855;28;20038;-76
2022/11/17 02:23:55;;;;;;;15.52;12.80;;;7.80;99.90;;;;;;4991943;28;20041;-76
2022/11/17 02:26:40;;;;;;;15.70;12.70;;;7.80;99.90;;;;;;4987221;28;20116;-77
2022/11/17 02:29:26;;;;;;;16.25;12.30;;;7.80;99.90;;;;;;4993709;28;20042;-77
2022/11/17 02:32:06;;;;;;;18.40;13.40;;;7.80;99.90;;;;;;4992853;28;20038;-77
2022/11/17 02:34:44;;;;;;;15.40;12.57;;;7.80;99.90;;;;;;4986074;28;20083;-76
2022/11/17 02:37:36;;;;;;;17.55;13.13;;;7.80;99.90;;;;;;4993243;28;20060;-77
2022/11/17 02:40:13;;;;;;;18.65;13.07;;;7.80;99.90;;;;;;4991954;28;20049;-77
2022/11/17 02:45:43;;;;;;;17.83;13.57;;;7.70;99.90;;;;;;4992832;28;20045;-77
2022/11/17 02:48:16;;;;;;;21.10;14.35;;;7.60;99.90;;;;;;4992838;28;20415;-78
2022/11/17 02:50:45;;;;;;;17.02;13.25;;;7.60;99.90;;;;;;4990856;28;20038;-79
2022/11/17 02:53:12;;;;;;;19.10;14.18;;;7.60;99.90;;;;;;4993404;28;20042;-77
2022/11/17 02:55:37;;;;;;;18.70;13.45;;;7.60;99.90;;;;;;4995030;28;20483;-77
2022/11/17 02:58:08;;;;;;;19.50;14.63;;;7.60;99.90;;;;;;4991911;28;20034;-79
2022/11/17 03:00:39;;;;;;;20.13;14.75;;;7.60;99.90;;;;;;4985874;28;20080;-80
2022/11/17 03:03:43;;;;;;;18.45;14.75;;;7.50;99.90;;;;;;4992920;28;20042;-78
2022/11/17 03:06:39;;;;;;;18.10;14.05;;;7.50;99.90;;;;;;4975362;28;20050;-78
2022/11/17 03:09:32;;;;;;;20.35;14.80;;;7.50;99.90;;;;;;4993164;28;20069;-79
2022/11/17 03:12:11;;;;;;;19.30;14.35;;;7.50;99.90;;;;;;4988717;28;20038;-78
2022/11/17 03:14:44;;;;;;;20.30;14.70;;;7.50;99.90;;;;;;4991936;28;20082;-78
2022/11/17 03:17:17;;;;;;;18.83;14.13;;;7.50;99.90;;;;;;4992055;28;20034;-77
2022/11/17 03:19:55;;;;;;;24.15;15.50;;;7.40;99.90;;;;;;5010335;28;20041;-76
2022/11/17 03:22:41;;;;;;;17.95;14.38;;;7.40;99.90;;;;;;4976108;28;20049;-78
2022/11/17 03:25:12;;;;;;;18.95;15.48;;;7.40;99.90;;;;;;5006217;28;20038;-77
2022/11/17 03:27:43;;;;;;;18.85;14.98;;;7.40;99.90;;;;;;4991847;28;20041;-77
2022/11/17 03:30:09;;;;;;;20.92;15.68;;;7.40;99.90;;;;;;4991954;28;20399;-77
2022/11/17 03:32:40;;;;;;;17.98;14.55;;;7.40;99.90;;;;;;4991722;28;20042;-76
2022/11/17 03:35:17;;;;;;;18.65;15.20;;;7.40;99.90;;;;;;4976162;28;20448;-78
2022/11/17 03:37:48;;;;;;;19.70;15.18;;;7.40;99.90;;;;;;5003876;28;20034;-78
2022/11/17 03:40:18;;;;;;;20.67;15.25;;;7.40;99.90;;;;;;4984548;28;20527;-77
2022/11/17 03:42:51;;;;;;;18.45;14.13;;;7.40;99.90;;;;;;4991320;28;20114;-76
2022/11/17 03:45:25;;;;;;;18.42;14.73;;;7.30;99.90;;;;;;4994624;28;20048;-77
2022/11/17 03:48:07;;;;;;;19.42;15.38;;;7.30;99.90;;;;;;4979586;28;20077;-76
2022/11/17 03:50:37;;;;;;;18.83;14.57;;;7.30;99.90;;;;;;4994060;28;20061;-76
2022/11/17 03:53:04;;;;;;;20.15;14.35;;;7.30;99.90;;;;;;4978593;28;20068;-77
2022/11/17 03:55:50;;;;;;;17.25;13.73;;;7.30;99.90;;;;;;4996009;28;20424;-77
2022/11/17 03:58:18;;;;;;;18.48;14.55;;;7.30;99.90;;;;;;4995211;28;21096;-78
2022/11/17 04:00:47;;;;;;;20.30;14.10;;;7.30;99.90;;;;;;4986735;28;20042;-76
2022/11/17 04:03:14;;;;;;;18.08;14.27;;;7.30;99.90;;;;;;4982748;28;20583;-77
2022/11/17 04:05:39;;;;;;;17.27;13.63;;;7.30;99.90;;;;;;4983718;28;20045;-75
2022/11/17 04:08:05;;;;;;;17.63;13.82;;;7.30;99.90;;;;;;4987252;28;20541;-76
2022/11/17 04:15:54;;;;;;;18.35;13.88;;;7.20;99.90;;;;;;4978621;28;20038;-77
2022/11/17 04:16:00;;;;;;;17.80;13.57;;;7.20;99.90;;;;;;4994875;28;20052;-78
2022/11/17 04:18:26;;;;;;;16.15;13.25;;;7.30;99.90;;;;;;4995203;28;20029;-76
2022/11/17 04:20:53;;;;;;;16.83;13.38;;;7.20;99.90;;;;;;4995241;28;20419;-76
2022/11/17 04:23:20;;;;;;;17.77;13.70;;;7.20;99.90;;;;;;4996098;28;20046;-77
2022/11/17 04:28:37;;;;;;;16.85;13.15;;;7.10;99.90;;;;;;4986230;28;20050;-77
2022/11/17 04:31:14;;;;;;;18.10;14.10;;;7.20;99.90;;;;;;4994489;28;20034;-77
2022/11/17 04:33:42;;;;;;;19.77;13.65;;;7.10;99.90;;;;;;4989367;28;20042;-77
2022/11/17 04:36:09;;;;;;;15.60;12.35;;;7.10;99.90;;;;;;4991763;28;20034;-77
2022/11/17 04:38:34;;;;;;;19.52;14.32;;;7.10;99.90;;;;;;4994778;28;20113;-75
2022/11/17 04:43:49;;;;;;;17.80;13.38;;;7.00;99.90;;;;;;4991415;28;20045;-76
2022/11/17 04:46:16;;;;;;;17.48;13.38;;;7.00;99.90;;;;;;4994806;28;20500;-77
2022/11/17 04:48:43;;;;;;;19.35;14.40;;;7.00;99.90;;;;;;4995486;28;20040;-77
2022/11/17 04:51:08;;;;;;;19.15;13.60;;;7.00;99.90;;;;;;4992965;28;20044;-76
2022/11/17 04:53:34;;;;;;;16.75;12.27;;;7.00;99.90;;;;;;4995494;28;20038;-76
2022/11/17 04:56:00;;;;;;;16.65;13.07;;;6.90;99.90;;;;;;4993751;28;20376;-76
2022/11/17 04:58:26;;;;;;;16.33;12.95;;;7.00;99.90;;;;;;4994367;28;20040;-78
2022/11/17 05:00:52;;;;;;;16.70;12.30;;;6.90;99.90;;;;;;4993634;28;20089;-77
2022/11/17 05:03:18;;;;;;;18.58;13.05;;;6.90;99.90;;;;;;4994530;28;20455;-76
2022/11/17 05:05:44;;;;;;;17.05;12.75;;;6.90;99.90;;;;;;4994725;28;20038;-77
2022/11/17 05:08:10;;;;;;;16.73;12.98;;;6.90;99.90;;;;;;4993789;28;20403;-76
2022/11/17 05:13:25;;;;;;;15.52;12.63;;;6.90;99.90;;;;;;4995063;28;20037;-76
2022/11/17 05:18:41;;;;;;;15.80;11.95;;;6.80;99.90;;;;;;4988528;28;20054;-77
2022/11/17 05:21:08;;;;;;;15.00;12.02;;;6.80;99.90;;;;;;4977360;28;20067;-76
2022/11/17 05:23:53;;;;;;;14.70;11.95;;;6.80;99.90;;;;;;4993758;28;20460;-77
2022/11/17 05:26:25;;;;;;;16.83;12.80;;;6.80;99.90;;;;;;4993483;28;20030;-77
2022/11/17 05:28:51;;;;;;;14.75;11.75;;;6.80;99.90;;;;;;4993669;28;20443;-77
2022/11/17 05:31:17;;;;;;;15.27;11.88;;;6.70;99.90;;;;;;4973849;28;20034;-75
2022/11/17 05:33:43;;;;;;;15.18;12.02;;;6.70;99.90;;;;;;4992235;28;20100;-77
2022/11/17 05:36:09;;;;;;;16.08;12.68;;;6.70;99.90;;;;;;4993277;28;20077;-75
2022/11/17 05:38:35;;;;;;;14.50;11.43;;;6.70;99.90;;;;;;4993531;28;20041;-77
2022/11/17 05:41:00;;;;;;;13.95;10.95;;;6.70;99.90;;;;;;4992427;28;20596;-77
2022/11/17 05:43:26;;;;;;;13.57;10.85;;;6.70;99.90;;;;;;4993796;28;20426;-76
2022/11/17 05:45:52;;;;;;;16.50;12.18;;;6.70;99.90;;;;;;4977429;28;20045;-76
2022/11/17 05:48:17;;;;;;;14.65;10.88;;;6.70;99.90;;;;;;4993418;28;20038;-76
2022/11/17 05:50:43;;;;;;;13.20;10.45;;;6.60;99.90;;;;;;4990667;28;20117;-75
2022/11/17 05:53:08;;;;;;;11.50;9.77;;;6.70;99.90;;;;;;5006667;28;20042;-75
2022/11/17 05:55:34;;;;;;;13.07;9.80;;;6.60;99.90;;;;;;4992475;28;20046;-76
2022/11/17 05:58:05;;;;;;;13.20;10.32;;;6.60;99.90;;;;;;4989260;28;20046;-77
2022/11/17 06:00:33;;;;;;;12.07;9.68;;;6.60;99.90;;;;;;4989861;28;20034;-80
2022/11/17 06:03:05;;;;;;;12.25;9.77;;;6.60;99.90;;;;;;4988802;28;20038;-79
2022/11/17 06:05:32;;;;;;;13.38;9.65;;;6.60;99.90;;;;;;5001452;28;20061;-77
2022/11/17 06:07:57;;;;;;;11.32;9.63;;;6.60;99.90;;;;;;4991580;28;20069;-77
2022/11/17 06:10:23;;;;;;;12.65;10.18;;;6.60;99.90;;;;;;4992858;28;20085;-75
2022/11/17 06:12:49;;;;;;;12.02;9.75;;;6.60;99.90;;;;;;4992256;28;20034;-75
2022/11/17 06:15:15;;;;;;;11.27;9.27;;;6.60;99.90;;;;;;4992783;28;20048;-76
2022/11/17 06:17:51;;;;;;;10.45;8.73;;;6.60;99.90;;;;;;4994179;28;20057;-76
2022/11/17 06:20:20;;;;;;;10.55;9.15;;;6.60;99.90;;;;;;4976395;28;20049;-78
2022/11/17 06:22:47;;;;;;;11.70;9.20;;;6.60;99.90;;;;;;4995871;28;20120;-76
2022/11/17 06:25:13;;;;;;;10.45;9.02;;;6.60;99.90;;;;;;4993748;28;20137;-75
2022/11/17 06:27:40;;;;;;;11.90;8.90;;;6.60;99.90;;;;;;4992153;28;20048;-76
2022/11/17 06:30:06;;;;;;;10.00;8.60;;;6.60;99.90;;;;;;4993264;28;20046;-75
2022/11/17 06:32:35;;;;;;;11.27;8.90;;;6.60;99.90;;;;;;4993916;28;20122;-77
2022/11/17 06:35:04;;;;;;;9.80;8.27;;;6.60;99.90;;;;;;4990115;28;20416;-76
2022/11/17 06:37:30;;;;;;;11.60;8.80;;;6.60;99.90;;;;;;4988066;28;20727;-77
2022/11/17 06:39:55;;;;;;;11.35;8.38;;;6.60;99.90;;;;;;4996353;28;20044;-78
2022/11/17 06:43:02;;;;;;;9.88;7.80;;;6.50;99.90;;;;;;4993832;28;20068;-77
2022/11/17 06:45:07;;;;;;;10.57;8.18;;;6.60;99.90;;;;;;4992340;28;20046;-76
2022/11/17 06:47:32;;;;;;;10.50;8.40;;;6.50;99.90;;;;;;4993162;28;20376;-77
2022/11/17 06:49:58;;;;;;;10.10;7.88;;;6.50;99.90;;;;;;4991506;28;20104;-76
2022/11/17 06:52:23;;;;;;;12.32;8.70;;;6.50;99.90;;;;;;4974067;28;20135;-77
2022/11/17 06:54:49;;;;;;;9.70;8.18;;;6.50;99.90;;;;;;4986903;28;20041;-76
2022/11/17 06:57:15;;;;;;;10.20;8.20;;;6.50;99.90;;;;;;4992381;28;20076;-76
2022/11/17 06:59:41;;;;;;;9.43;8.13;;;6.50;99.90;;;;;;4993518;28;20038;-74
2022/11/17 07:02:06;;;;;;;9.80;7.50;;;6.50;99.90;;;;;;4972872;28;20185;-75
2022/11/17 07:04:32;;;;;;;9.48;7.78;;;6.50;99.90;;;;;;5009068;28;20076;-78
2022/11/17 07:06:57;;;;;;;10.02;7.55;;;6.60;99.90;;;;;;4992708;28;20100;-78
2022/11/17 07:09:24;;;;;;;9.77;7.78;;;6.50;99.90;;;;;;5008547;28;20048;-78
2022/11/17 07:11:50;;;;;;;9.73;8.05;;;6.50;99.90;;;;;;4990068;28;20046;-77
2022/11/17 07:14:15;;;;;;;9.05;7.40;;;6.50;99.90;;;;;;4993407;28;20026;-79
2022/11/17 07:16:42;;;;;;;9.15;7.60;;;6.40;99.90;;;;;;4993630;28;20112;-76
2022/11/17 07:19:09;;;;;;;11.30;8.02;;;6.50;99.90;;;;;;4995408;28;20057;-76
2022/11/17 07:21:35;;;;;;;10.60;8.02;;;6.50;99.90;;;;;;4997220;28;20041;-76
2022/11/17 07:24:02;;;;;;;10.05;8.00;;;6.50;99.90;;;;;;4996216;28;20049;-76
2022/11/17 07:26:27;;;;;;;10.60;8.02;;;6.40;99.90;;;;;;4995463;28;20042;-74
2022/11/17 07:28:53;;;;;;;10.05;7.72;;;6.50;99.90;;;;;;4995890;28;20049;-76
2022/11/17 07:31:19;;;;;;;9.55;7.55;;;6.50;99.90;;;;;;4995975;28;20045;-75
2022/11/17 07:33:44;;;;;;;11.75;8.35;;;6.50;99.90;;;;;;4996548;28;20125;-76
2022/11/17 07:36:13;;;;;;;9.50;7.82;;;6.50;99.90;;;;;;4994916;28;20415;-76
2022/11/17 07:38:40;;;;;;;9.73;7.20;;;6.50;99.90;;;;;;4994437;28;20488;-77
2022/11/17 07:41:07;;;;;;;9.80;7.55;;;6.50;99.90;;;;;;4994932;28;20478;-75
2022/11/17 07:43:34;;;;;;;8.68;7.40;;;6.50;99.90;;;;;;4996203;28;20492;-76
2022/11/17 07:46:04;;;;;;;11.52;7.50;;;6.50;99.90;;;;;;4994357;28;20038;-78
2022/11/17 07:48:29;;;;;;;10.52;7.20;;;6.50;99.90;;;;;;4988453;28;20041;-75
2022/11/17 07:50:58;;;;;;;9.32;7.57;;;6.50;99.90;;;;;;4973777;28;20570;-76
2022/11/17 07:53:23;;;;;;;8.15;6.70;;;6.50;99.90;;;;;;4996318;28;20041;-77
2022/11/17 07:55:49;;;;;;;9.57;7.07;;;6.50;99.90;;;;;;4996708;28;20053;-77
2022/11/17 07:58:14;;;;;;;8.80;7.15;;;6.50;99.90;;;;;;4993435;28;20042;-75
2022/11/17 08:00:40;;;;;;;9.75;7.15;;;6.50;99.90;;;;;;4990634;28;20043;-74
2022/11/17 08:03:06;;;;;;;8.65;7.00;;;6.50;99.90;;;;;;4993837;28;20046;-76
2022/11/17 08:05:35;;;;;;;9.57;6.88;;;6.50;99.90;;;;;;4994614;28;20503;-76
2022/11/17 08:08:01;;;;;;;8.15;6.45;;;6.50;99.90;;;;;;4992226;28;20053;-76
2022/11/17 08:10:31;;;;;;;9.00;6.68;;;6.50;99.90;;;;;;4995715;28;20050;-77
2022/11/17 08:12:59;;;;;;;9.30;6.30;;;6.50;99.90;;;;;;4987821;28;20144;-77
2022/11/17 08:15:28;;;;;;;8.07;5.82;;;6.50;99.90;;;;;;4994641;28;20049;-77
2022/11/17 08:17:56;;;;;;;8.02;6.22;;;6.50;99.90;;;;;;4995349;28;20411;-76
2022/11/17 08:20:22;;;;;;;8.02;6.00;;;6.60;99.90;;;;;;4994534;28;20073;-77
2022/11/17 08:22:49;;;;;;;7.55;6.03;;;6.50;99.90;;;;;;4992015;28;20061;-78
2022/11/17 08:25:15;;;;;;;7.35;6.07;;;6.50;99.90;;;;;;4976940;28;20049;-78
2022/11/17 08:27:40;;;;;;;7.65;6.25;;;6.50;99.90;;;;;;4988436;28;20037;-76
2022/11/17 08:30:08;;;;;;;8.00;5.85;;;6.50;99.90;;;;;;4995699;28;20042;-77
2022/11/17 08:32:34;;;;;;;7.75;6.38;;;6.50;99.90;;;;;;4978258;28;20454;-77
2022/11/17 08:35:00;;;;;;;9.50;6.60;;;6.50;99.90;;;;;;4995048;28;20038;-77
2022/11/17 08:37:26;;;;;;;7.55;6.28;;;6.50;99.90;;;;;;4994289;28;20100;-75
2022/11/17 08:39:51;;;;;;;9.10;6.97;;;6.60;99.90;;;;;;4994067;28;20048;-75
2022/11/17 08:42:17;;;;;;;8.95;7.38;;;6.60;99.90;;;;;;4994696;28;20045;-75
2022/11/17 08:44:42;;;;;;;8.63;6.75;;;6.60;99.90;;;;;;5013517;28;20060;-75
2022/11/17 08:47:08;;;;;;;9.13;7.03;;;6.60;99.90;;;;;;4995860;28;20049;-74
2022/11/17 08:49:33;;;;;;;8.88;7.40;;;6.60;99.90;;;;;;4993605;28;20042;-74
2022/11/17 08:51:59;;;;;;;8.68;7.35;;;6.60;99.90;;;;;;4995035;28;20132;-74
2022/11/17 08:54:24;;;;;;;9.40;7.20;;;6.50;99.90;;;;;;4995657;28;20132;-74
2022/11/17 08:56:56;;;;;;;8.98;7.68;;;6.50;99.90;;;;;;4978377;28;20125;-74
2022/11/17 08:59:21;;;;;;;9.98;7.68;;;6.60;99.90;;;;;;4995140;28;20041;-75
2022/11/17 09:01:47;;;;;;;10.07;7.13;;;6.50;99.90;;;;;;4993827;28;20407;-74
2022/11/17 09:04:12;;;;;;;12.63;7.50;;;6.50;99.90;;;;;;4995552;28;20398;-74
2022/11/17 09:06:38;;;;;;;10.05;8.10;;;6.60;99.90;;;;;;4994344;28;20052;-73
2022/11/17 09:09:03;;;;;;;11.57;8.35;;;6.60;99.90;;;;;;4993784;28;20057;-74
2022/11/17 09:11:29;;;;;;;11.10;8.43;;;6.60;99.90;;;;;;4992811;28;20041;-74
2022/11/17 09:13:55;;;;;;;9.48;7.65;;;6.60;99.90;;;;;;4995155;28;20045;-74
2022/11/17 09:16:22;;;;;;;10.13;8.27;;;6.60;99.90;;;;;;4995214;28;20042;-74
2022/11/17 09:18:52;;;;;;;11.05;7.63;;;6.60;99.90;;;;;;4995083;28;20073;-73
2022/11/17 09:21:17;;;;;;;10.90;8.40;;;6.60;99.90;;;;;;4992993;28;20408;-74
2022/11/17 09:23:43;;;;;;;9.95;7.88;;;6.50;99.90;;;;;;4992372;28;20034;-74
2022/11/17 09:26:12;;;;;;;8.70;7.22;;;6.60;99.90;;;;;;4994278;28;20034;-74
2022/11/17 09:28:38;;;;;;;9.25;8.00;;;6.50;99.90;;;;;;4993569;28;20074;-75
2022/11/17 09:31:08;;;;;;;9.15;7.50;;;6.60;99.90;;;;;;4995886;28;20108;-75
2022/11/17 09:33:34;;;;;;;9.65;7.53;;;6.50;99.90;;;;;;4991141;28;20037;-75
2022/11/17 09:35:59;;;;;;;8.90;7.97;;;6.50;99.90;;;;;;4994126;28;20125;-74
2022/11/17 09:38:25;;;;;;;8.85;7.47;;;6.50;99.90;;;;;;4994217;28;20076;-74
2022/11/17 09:40:53;;;;;;;9.65;7.93;;;6.50;99.90;;;;;;4992336;28;20034;-74
2022/11/17 09:43:27;;;;;;;9.85;7.70;;;6.60;99.90;;;;;;4993608;28;20095;-74
2022/11/17 09:46:19;;;;;;;9.05;7.80;;;6.60;99.90;;;;;;5002500;28;20057;-74
2022/11/17 09:48:57;;;;;;;9.63;7.72;;;6.50;99.90;;;;;;4994371;28;20085;-73
2022/11/17 09:51:25;;;;;;;9.00;7.05;;;6.50;99.90;;;;;;4992174;28;20403;-75
2022/11/17 09:54:11;;;;;;;8.70;7.45;;;6.50;99.90;;;;;;4977467;28;20045;-74
2022/11/17 09:56:39;;;;;;;8.05;7.13;;;6.50;99.90;;;;;;4992256;28;20523;-74
2022/11/17 09:59:10;;;;;;;9.02;7.18;;;6.60;99.90;;;;;;4991904;28;20052;-73
2022/11/17 10:01:36;;;;;;;8.73;7.13;;;6.50;99.90;;;;;;4991476;28;20069;-75
2022/11/17 10:04:07;;;;;;;8.95;6.80;;;6.60;99.90;;;;;;4994186;28;20080;-75
2022/11/17 10:06:33;;;;;;;8.07;6.93;;;6.50;99.90;;;;;;4994259;28;20056;-76
2022/11/17 10:09:23;;;;;;;10.10;7.30;;;6.50;99.90;;;;;;4992095;28;20041;-74
2022/11/17 10:11:49;;;;;;;10.68;7.35;;;6.50;99.90;;;;;;4992016;28;20052;-74
2022/11/17 10:14:17;;;;;;;8.50;7.15;;;6.60;99.90;;;;;;4994143;28;20511;-75
2022/11/17 10:16:49;;;;;;;8.50;7.28;;;6.60;99.90;;;;;;4994245;28;20050;-75
2022/11/17 10:19:25;;;;;;;9.73;7.22;;;6.60;99.90;;;;;;4977773;28;20046;-74
2022/11/17 10:21:53;;;;;;;8.73;7.10;;;6.60;99.90;;;;;;4992320;28;20042;-74
2022/11/17 10:24:35;;;;;;;9.60;7.57;;;6.60;99.90;;;;;;4993145;28;20045;-74
2022/11/17 10:27:03;;;;;;;9.65;7.57;;;6.60;99.90;;;;;;4992600;28;20465;-75
2022/11/17 10:29:28;;;;;;;8.57;7.57;;;6.60;99.90;;;;;;4995415;28;20082;-74
2022/11/17 10:31:54;;;;;;;8.77;7.55;;;6.60;99.90;;;;;;4992904;28;20038;-75
2022/11/17 10:34:37;;;;;;;8.38;7.10;;;6.70;99.90;;;;;;4991756;28;20042;-74
2022/11/17 10:37:21;;;;;;;8.63;6.85;;;6.70;99.90;;;;;;4992998;28;20042;-74
2022/11/17 10:39:47;;;;;;;8.70;7.32;;;6.70;99.90;;;;;;4987420;28;20057;-75
2022/11/17 10:42:19;;;;;;;8.63;7.20;;;6.70;99.90;;;;;;4991505;28;20403;-74
2022/11/17 10:44:50;;;;;;;8.50;7.32;;;6.70;99.90;;;;;;4976777;28;20121;-75
2022/11/17 10:47:37;;;;;;;8.38;7.00;;;6.70;99.90;;;;;;4987618;28;20046;-74
2022/11/17 10:50:05;;;;;;;8.27;7.03;;;6.60;99.90;;;;;;4958182;28;20043;-75
2022/11/17 10:52:31;;;;;;;8.70;6.82;;;6.60;99.90;;;;;;4962442;28;20041;-74
2022/11/17 10:55:22;;;;;;;7.75;6.75;;;6.60;99.90;;;;;;4995737;28;20049;-74
2022/11/17 10:57:52;;;;;;;8.48;6.88;;;6.60;99.90;;;;;;4990749;28;20056;-73
2022/11/17 11:00:32;;;;;;;7.78;6.82;;;6.60;99.90;;;;;;4996352;28;20116;-74
2022/11/17 11:03:18;;;;;;;8.63;6.30;;;6.70;99.90;;;;;;4980626;28;20048;-74
2022/11/17 11:06:04;;;;;;;7.32;6.43;;;6.70;99.90;;;;;;4991650;28;20050;-74
2022/11/17 11:08:54;;;;;;;7.90;6.30;;;6.70;99.90;;;;;;4996267;28;20472;-74
2022/11/17 11:11:48;;;;;;;7.70;6.40;;;6.70;99.90;;;;;;4995827;28;20049;-76
2022/11/17 11:14:18;;;;;;;8.32;6.93;;;6.70;99.90;;;;;;4999794;28;20049;-77
2022/11/17 11:16:49;;;;;;;7.65;6.55;;;6.60;99.90;;;;;;4997797;28;20435;-76
2022/11/17 11:19:16;;;;;;;8.15;6.57;;;6.70;99.90;;;;;;4994898;28;20230;-76
2022/11/17 11:21:42;;;;;;;7.47;6.57;;;6.60;99.90;;;;;;4997058;28;20034;-73
2022/11/17 11:24:33;;;;;;;7.30;6.20;;;6.60;99.90;;;;;;4996301;28;20053;-74
2022/11/17 11:27:32;;;;;;;7.80;6.50;;;6.60;99.90;;;;;;4993985;28;20053;-74
2022/11/17 11:30:05;;;;;;;7.55;6.13;;;6.60;99.90;;;;;;4992547;28;20526;-74
2022/11/17 11:32:34;;;;;;;7.03;5.97;;;6.60;99.90;;;;;;4977358;28;20076;-76
2022/11/17 11:35:29;;;;;;;9.38;7.07;;;6.60;99.90;;;;;;4996975;28;20042;-76
2022/11/17 11:38:22;;;;;;;8.02;6.20;;;6.60;99.90;;;;;;4997231;28;20065;-78
2022/11/17 11:41:08;;;;;;;7.38;6.32;;;6.60;99.90;;;;;;4996110;28;20046;-75
2022/11/17 11:44:09;;;;;;;8.48;6.60;;;6.60;99.90;;;;;;4992714;28;20087;-75
2022/11/17 11:46:57;;;;;;;8.30;6.70;;;6.70;99.90;;;;;;4989465;28;20038;-74
2022/11/17 11:49:35;;;;;;;9.48;6.60;;;6.70;99.90;;;;;;4993212;28;20507;-76
2022/11/17 11:52:09;;;;;;;8.48;6.88;;;6.70;99.90;;;;;;4991837;28;20124;-74
2022/11/17 11:54:46;;;;;;;9.10;6.68;;;6.70;99.90;;;;;;4980897;28;20046;-74
2022/11/17 11:57:14;;;;;;;8.45;6.60;;;6.70;99.90;;;;;;4993075;28;20065;-74
2022/11/17 11:59:51;;;;;;;8.18;7.05;;;6.70;99.90;;;;;;4965152;28;20567;-73
2022/11/17 12:02:29;;;;;;;8.93;6.40;;;6.70;99.90;;;;;;4994803;28;20129;-74
2022/11/17 12:05:00;;;;;;;8.93;6.82;;;6.70;99.90;;;;;;4993541;28;20052;-73
2022/11/17 12:07:41;;;;;;;8.48;6.75;;;6.80;99.90;;;;;;4994480;28;20046;-74
2022/11/17 12:10:28;;;;;;;8.50;6.85;;;6.80;99.90;;;;;;4996449;28;20073;-75
2022/11/17 12:12:53;;;;;;;8.27;6.72;;;6.70;99.90;;;;;;4994338;28;20131;-73
2022/11/17 12:15:19;;;;;;;8.10;6.50;;;6.80;99.90;;;;;;4995868;28;20069;-75
2022/11/17 12:17:51;;;;;;;8.18;6.20;;;6.80;99.90;;;;;;4979990;28;20463;-73
2022/11/17 12:20:35;;;;;;;8.88;6.50;;;6.80;99.90;;;;;;4995098;28;20487;-75
2022/11/17 12:23:17;;;;;;;;;;;6.80;99.90;;;;;;4996506;28;20104;-73
2022/11/17 12:25:47;;;;;;;9.02;6.90;;;6.80;99.90;;;;;;5012015;28;20015;-75
2022/11/17 12:28:39;;;;;;;8.55;6.65;;;6.90;99.90;;;;;;4995625;28;20053;-74
2022/11/17 12:31:23;;;;;;;8.52;6.85;;;6.80;99.90;;;;;;4990590;28;20038;-73
2022/11/17 12:33:51;;;;;;;8.27;6.53;;;6.80;99.90;;;;;;4982253;28;20085;-74
2022/11/17 12:36:23;;;;;;;7.88;5.70;;;6.90;99.90;;;;;;4976102;28;20042;-75
2022/11/17 12:38:56;;;;;;;7.40;6.10;;;6.80;99.90;;;;;;4979587;28;20502;-74
2022/11/17 12:41:49;;;;;;;8.70;6.18;;;6.90;99.90;;;;;;4992437;28;20122;-75
2022/11/17 12:44:36;;;;;;;7.07;6.00;;;6.90;99.90;;;;;;4989959;28;20041;-76
2022/11/17 12:47:12;;;;;;;7.93;5.88;;;6.90;99.90;;;;;;4990916;28;20042;-74
2022/11/17 12:50:03;;;;;;;7.35;5.95;;;6.90;99.90;;;;;;4991417;28;20038;-75
2022/11/17 12:52:53;;;;;;;8.65;5.72;;;6.90;99.90;;;;;;4959561;28;20454;-73
2022/11/17 12:55:48;;;;;;;8.02;5.88;;;6.90;99.90;;;;;;4991792;28;20480;-74
2022/11/17 12:58:24;;;;;;;6.95;5.40;;;6.90;99.90;;;;;;4991531;28;20040;-73
2022/11/17 13:01:18;;;;;;;6.40;5.70;;;7.00;99.90;;;;;;4975535;28;20042;-74
2022/11/17 13:04:00;;;;;;;7.38;5.93;;;7.00;99.90;;;;;;4975642;28;20116;-73
2022/11/17 13:06:26;;;;;;;7.05;5.60;;;7.00;99.90;;;;;;4997921;28;20054;-75
2022/11/17 13:08:56;;;;;;;8.90;6.10;;;7.00;99.90;;;;;;4967652;28;20038;-73
2022/11/17 13:11:22;;;;;;;6.88;5.50;;;7.00;99.90;;;;;;4991117;28;20030;-75
2022/11/17 13:13:48;;;;;;;8.90;5.63;;;7.10;99.90;;;;;;4983056;28;20042;-74
2022/11/17 13:16:19;;;;;;;6.97;5.72;;;7.10;99.90;;;;;;4962315;28;20034;-74
2022/11/17 13:18:45;;;;;;;7.32;5.75;;;7.10;99.90;;;;;;4996589;28;20057;-73
2022/11/17 13:21:27;;;;;;;6.82;5.60;;;7.10;99.90;;;;;;4995966;28;20047;-74
2022/11/17 13:23:53;;;;;;;6.97;6.07;;;7.20;99.90;;;;;;4992714;28;20042;-75
2022/11/17 13:26:22;;;;;;;6.07;5.18;;;7.10;99.90;;;;;;4988112;28;20042;-73
2022/11/17 13:29:05;;;;;;;8.10;5.88;;;7.10;99.90;;;;;;4966923;28;20412;-75
2022/11/17 13:31:31;;;;;;;7.07;5.20;;;7.20;99.90;;;;;;4990886;28;20038;-76
2022/11/17 13:34:12;;;;;;;6.70;5.38;;;7.10;99.90;;;;;;4993711;28;20042;-74